createdAt,value
2018-11-20T00:00:14.022Z,99149.88
2018-11-20T00:03:01.801Z,99148.73
2018-11-20T00:05:54.298Z,99155.00
2018-11-20T00:08:41.793Z,99161.05
2018-11-20T00:11:33.495Z,99157.59
2018-11-20T00:14:37.808Z,99144.77
2018-11-20T00:17:27.052Z,99143.19
2018-11-20T00:20:21.911Z,99137.38
2018-11-20T00:23:23.118Z,99135.91
2018-11-20T00:26:10.756Z,99134.16
2018-11-20T00:29:00.001Z,99134.55
2018-11-20T00:31:47.689Z,99134.42
2018-11-20T00:34:36.873Z,99132.44
2018-11-20T00:37:36.679Z,99135.80
2018-11-20T00:40:13.806Z,99125.63
2018-11-20T00:43:05.729Z,99131.86
2018-11-20T00:45:53.541Z,99128.68
2018-11-20T00:48:52.788Z,99134.66
2018-11-20T00:51:40.981Z,99125.73
2018-11-20T00:54:29.338Z,99126.98
2018-11-20T00:57:11.031Z,99122.75
2018-11-20T00:59:59.890Z,99124.13
2018-11-20T01:02:57.736Z,99129.59
2018-11-20T01:05:39.040Z,99122.64
2018-11-20T01:08:32.016Z,99124.36
2018-11-20T01:11:25.015Z,99138.75
2018-11-20T01:14:12.861Z,99128.22
2018-11-20T01:17:07.697Z,99127.71
2018-11-20T01:19:55.582Z,99119.56
2018-11-20T01:22:43.164Z,99104.16
2018-11-20T01:25:30.147Z,99099.48
2018-11-20T01:28:24.770Z,99096.87
2018-11-20T01:31:07.720Z,99090.26
2018-11-20T01:33:59.596Z,99087.34
2018-11-20T01:36:45.094Z,99073.18
2018-11-20T01:39:30.257Z,99079.09
2018-11-20T01:42:18.011Z,99068.33
2018-11-20T01:45:05.674Z,99064.40
2018-11-20T01:47:50.703Z,99051.48
2018-11-20T01:50:38.256Z,99046.02
2018-11-20T01:53:25.819Z,99042.05
2018-11-20T01:56:13.332Z,99041.99
2018-11-20T01:59:20.755Z,99041.19
2018-11-20T02:02:12.779Z,99031.46
2018-11-20T02:05:00.327Z,99016.83
2018-11-20T02:07:48.547Z,99008.80
2018-11-20T02:10:36.474Z,99002.11
2018-11-20T02:13:58.720Z,99002.68
2018-11-20T02:16:48.936Z,98997.44
2018-11-20T02:19:46.774Z,99000.13
2018-11-20T02:22:34.357Z,98995.09
2018-11-20T02:25:38.377Z,98996.47
2018-11-20T02:28:19.929Z,98991.23
2018-11-20T02:31:14.737Z,98990.60
2018-11-20T02:34:22.497Z,98992.53
2018-11-20T02:37:10.607Z,98989.53
2018-11-20T02:40:03.641Z,98987.59
2018-11-20T02:42:58.733Z,98983.67
2018-11-20T02:46:00.000Z,98991.41
2018-11-20T02:49:01.367Z,98988.73
2018-11-20T02:51:49.674Z,98985.87
2018-11-20T02:54:57.213Z,98982.45
2018-11-20T02:57:49.381Z,98997.71
2018-11-20T03:00:57.505Z,98983.44
2018-11-20T03:03:52.544Z,98994.83
2018-11-20T03:06:39.980Z,99003.98
2018-11-20T03:09:23.165Z,99019.73
2018-11-20T03:12:10.774Z,98998.78
2018-11-20T03:14:58.599Z,99006.98
2018-11-20T03:17:49.070Z,99012.67
2018-11-20T03:20:33.038Z,99023.44
2018-11-20T03:23:27.794Z,99025.31
2018-11-20T03:26:38.907Z,99033.41
2018-11-20T03:29:49.901Z,99041.03
2018-11-20T03:32:45.448Z,99023.33
2018-11-20T03:35:34.463Z,99018.77
2018-11-20T03:38:41.755Z,99002.27
2018-11-20T03:41:29.472Z,99016.03
2018-11-20T03:44:18.753Z,99015.11
2018-11-20T03:47:00.512Z,99010.73
2018-11-20T03:49:48.033Z,99007.05
2018-11-20T03:52:46.358Z,99000.00
2018-11-20T03:55:41.630Z,99008.92
2018-11-20T03:58:39.191Z,98995.03
2018-11-20T04:01:31.534Z,98993.72
2018-11-20T04:04:23.234Z,98981.08
2018-11-20T04:07:05.298Z,98983.19
2018-11-20T04:09:52.425Z,98968.52
2018-11-20T04:12:50.616Z,98981.08
2018-11-20T04:15:51.605Z,98971.08
2018-11-20T04:18:44.865Z,98967.21
2018-11-20T04:21:51.877Z,98976.13
2018-11-20T04:24:43.755Z,98975.13
2018-11-20T04:27:26.370Z,98978.81
2018-11-20T04:30:51.261Z,98981.70
2018-11-20T04:34:11.486Z,98973.81
2018-11-20T04:37:15.201Z,98972.83
2018-11-20T04:40:13.744Z,98975.05
2018-11-20T04:43:12.234Z,98974.38
2018-11-20T04:46:13.407Z,98969.76
2018-11-20T04:49:05.153Z,98956.81
2018-11-20T04:52:06.105Z,98983.54
2018-11-20T04:54:53.768Z,98981.48
2018-11-20T04:57:47.816Z,98972.02
2018-11-20T05:00:36.840Z,98967.20
2018-11-20T05:03:26.255Z,98977.48
2018-11-20T05:06:21.194Z,98978.69
2018-11-20T05:09:19.137Z,98969.52
2018-11-20T05:12:07.268Z,98965.83
2018-11-20T05:15:08.400Z,98964.28
2018-11-20T05:17:48.983Z,98969.06
2018-11-20T05:20:36.779Z,98962.11
2018-11-20T05:23:28.818Z,98962.35
2018-11-20T05:26:33.040Z,98971.28
2018-11-20T05:29:27.998Z,98975.39
2018-11-20T05:32:22.765Z,98937.12
2018-11-20T05:35:04.551Z,98956.05
2018-11-20T05:37:50.439Z,98965.83
2018-11-20T05:40:37.915Z,98971.84
2018-11-20T05:43:22.893Z,98969.14
2018-11-20T05:46:10.817Z,98975.06
2018-11-20T05:49:02.727Z,98976.13
2018-11-20T05:51:50.798Z,98970.66
2018-11-20T05:54:39.808Z,98972.50
2018-11-20T05:57:36.207Z,98958.48
2018-11-20T06:00:33.108Z,98953.48
2018-11-20T06:03:34.801Z,98947.71
2018-11-20T06:06:26.453Z,98949.77
2018-11-20T06:09:12.770Z,98945.62
2018-11-20T06:12:04.770Z,98959.23
2018-11-20T06:15:03.086Z,98956.05
2018-11-20T06:18:07.417Z,98964.47
2018-11-20T06:20:59.579Z,98955.69
2018-11-20T06:23:51.461Z,98967.72
2018-11-20T06:26:39.447Z,98962.98
2018-11-20T06:29:27.669Z,98952.40
2018-11-20T06:32:15.273Z,98952.27
2018-11-20T06:35:13.120Z,98954.52
2018-11-20T06:38:04.845Z,98962.72
2018-11-20T06:40:52.402Z,98961.67
2018-11-20T06:43:44.109Z,98958.33
2018-11-20T06:46:45.270Z,98970.22
2018-11-20T06:49:31.004Z,98957.51
2018-11-20T06:52:32.083Z,98962.93
2018-11-20T06:55:18.175Z,98959.67
2018-11-20T06:58:13.145Z,98961.35
2018-11-20T07:01:00.980Z,98958.26
2018-11-20T07:03:48.915Z,98952.97
2018-11-20T07:06:33.843Z,98953.58
2018-11-20T07:09:25.735Z,98961.41
2018-11-20T07:12:14.805Z,98962.09
2018-11-20T07:15:03.924Z,98950.88
2018-11-20T07:17:44.474Z,98945.59
2018-11-20T07:20:36.387Z,98946.39
2018-11-20T07:23:28.492Z,98956.38
2018-11-20T07:26:29.716Z,98959.51
2018-11-20T07:29:24.635Z,98946.47
2018-11-20T07:32:25.610Z,98948.27
2018-11-20T07:35:11.722Z,98945.52
2018-11-20T07:38:03.735Z,98949.45
2018-11-20T07:40:50.519Z,98945.92
2018-11-20T07:43:45.635Z,98934.55
2018-11-20T07:46:29.155Z,98945.03
2018-11-20T07:49:18.791Z,98939.32
2018-11-20T07:52:16.448Z,98934.93
2018-11-20T07:55:17.799Z,98930.14
2018-11-20T07:58:05.534Z,98923.09
2018-11-20T08:00:57.276Z,98918.72
2018-11-20T08:03:39.376Z,98916.84
2018-11-20T08:06:27.165Z,98926.76
2018-11-20T08:09:22.088Z,98912.04
2018-11-20T08:12:18.097Z,98910.78
2018-11-20T08:15:07.583Z,98905.73
2018-11-20T08:17:56.680Z,98903.65
2018-11-20T08:20:47.381Z,98904.30
2018-11-20T08:23:35.331Z,98903.22
2018-11-20T08:26:24.974Z,98906.22
2018-11-20T08:29:17.938Z,98903.20
2018-11-20T08:32:07.682Z,98905.36
2018-11-20T08:35:08.014Z,98899.34
2018-11-20T08:37:59.774Z,98896.94
2018-11-20T08:41:07.061Z,98906.22
2018-11-20T08:44:14.343Z,98893.28
2018-11-20T08:47:25.786Z,98892.08
2018-11-20T08:50:23.896Z,98903.35
2018-11-20T08:53:08.942Z,98884.66
2018-11-20T08:56:32.441Z,98904.85
2018-11-20T08:59:22.433Z,98888.39
2018-11-20T09:02:10.440Z,98897.73
2018-11-20T09:05:10.310Z,98901.10
2018-11-20T09:08:04.316Z,98899.58
2018-11-20T09:11:02.956Z,98904.77
2018-11-20T09:14:00.812Z,98908.10
2018-11-20T09:16:58.833Z,98907.86
2018-11-20T09:20:09.894Z,98910.62
2018-11-20T09:23:21.559Z,98907.34
2018-11-20T09:26:27.928Z,98904.47
2018-11-20T09:29:39.766Z,98909.92
2018-11-20T09:32:34.887Z,98906.02
2018-11-20T09:35:18.392Z,98902.02
2018-11-20T09:38:03.034Z,98902.38
2018-11-20T09:40:55.294Z,98890.33
2018-11-20T09:43:49.935Z,98885.09
2018-11-20T09:46:37.708Z,98888.07
2018-11-20T09:49:29.643Z,98879.66
2018-11-20T09:52:19.321Z,98882.08
2018-11-20T09:55:07.247Z,98878.70
2018-11-20T09:58:11.217Z,98883.70
2018-11-20T10:01:00.306Z,98873.56
2018-11-20T10:03:58.632Z,98881.83
2018-11-20T10:06:46.290Z,98874.45
2018-11-20T10:09:53.394Z,98867.38
2018-11-20T10:12:51.228Z,98867.72
2018-11-20T10:15:49.847Z,98865.75
2018-11-20T10:18:54.174Z,98849.58
2018-11-20T10:21:36.089Z,98860.25
2018-11-20T10:24:22.641Z,98860.70
2018-11-20T10:27:59.860Z,98838.33
2018-11-20T10:30:46.860Z,98850.25
2018-11-20T10:33:41.088Z,98851.00
2018-11-20T10:36:43.157Z,98850.56
2018-11-20T10:39:31.839Z,98842.70
2018-11-20T10:42:23.162Z,98844.89
2018-11-20T10:45:23.792Z,98845.45
2018-11-20T10:48:04.508Z,98841.63
2018-11-20T10:50:51.859Z,98840.12
2018-11-20T10:53:38.883Z,98843.56
2018-11-20T10:56:26.085Z,98830.66
2018-11-20T10:59:13.140Z,98832.82
2018-11-20T11:02:00.083Z,98821.70
2018-11-20T11:04:47.325Z,98827.92
2018-11-20T11:07:48.361Z,98834.51
2018-11-20T11:10:28.072Z,98827.30
2018-11-20T11:13:25.247Z,98833.95
2018-11-20T11:16:12.049Z,98826.16
2018-11-20T11:19:12.643Z,98826.44
2018-11-20T11:22:07.175Z,98820.91
2018-11-20T11:24:55.562Z,98807.26
2018-11-20T11:27:44.356Z,98808.86
2018-11-20T11:30:31.628Z,98810.67
2018-11-20T11:33:38.453Z,98805.88
2018-11-20T11:36:36.551Z,98803.61
2018-11-20T11:39:29.517Z,98803.87
2018-11-20T11:42:30.239Z,98808.18
2018-11-20T11:45:24.499Z,98802.84
2018-11-20T11:48:15.587Z,98800.08
2018-11-20T11:51:03.840Z,98808.81
2018-11-20T11:53:58.117Z,98803.11
2018-11-20T11:56:45.607Z,98798.25
2018-11-20T11:59:33.182Z,98785.56
2018-11-20T12:05:12.519Z,98787.46
2018-11-20T12:10:54.500Z,98764.80
2018-11-20T12:13:54.552Z,98770.09
2018-11-20T12:16:43.309Z,98764.47
2018-11-20T12:19:34.614Z,98747.09
2018-11-20T12:22:21.843Z,98756.60
2018-11-20T12:25:10.111Z,98750.84
2018-11-20T12:27:58.829Z,98741.17
2018-11-20T12:31:03.854Z,98739.27
2018-11-20T12:34:07.499Z,98740.41
2018-11-20T12:36:55.841Z,98734.02
2018-11-20T12:39:58.388Z,98745.17
2018-11-20T12:42:48.897Z,98734.58
2018-11-20T12:45:49.208Z,98722.18
2018-11-20T12:48:40.436Z,98723.92
2018-11-20T12:51:27.372Z,98725.94
2018-11-20T12:54:33.630Z,98724.03
2018-11-20T12:57:21.139Z,98705.24
2018-11-20T13:00:28.277Z,98701.60
2018-11-20T13:03:25.476Z,98702.83
2018-11-20T13:06:12.239Z,98701.48
2018-11-20T13:09:09.922Z,98717.99
2018-11-20T13:11:57.142Z,98707.89
2018-11-20T13:14:45.748Z,98691.24
2018-11-20T13:17:44.433Z,98699.39
2018-11-20T13:20:32.026Z,98708.14
2018-11-20T13:23:20.887Z,98690.63
2018-11-20T13:26:07.745Z,98698.78
2018-11-20T13:29:32.345Z,98696.72
2018-11-20T13:32:17.101Z,98693.55
2018-11-20T13:34:57.711Z,98688.57
2018-11-20T13:38:11.677Z,98679.26
2018-11-20T13:44:20.087Z,98681.94
2018-11-20T13:47:20.722Z,98667.73
2018-11-20T13:50:24.836Z,98669.25
2018-11-20T13:53:12.009Z,98665.92
2018-11-20T13:55:59.307Z,98664.66
2018-11-20T13:58:47.873Z,98658.62
2018-11-20T14:01:49.248Z,98666.89
2018-11-20T14:04:49.503Z,98666.43
2018-11-20T14:07:49.751Z,98657.98
2018-11-20T14:10:36.892Z,98664.22
2018-11-20T14:13:26.236Z,98661.66
2018-11-20T14:16:13.302Z,98662.61
2018-11-20T14:19:18.458Z,98670.80
2018-11-20T14:22:05.594Z,98669.89
2018-11-20T14:24:52.604Z,98692.70
2018-11-20T14:27:51.130Z,98678.97
2018-11-20T14:30:39.723Z,98664.02
2018-11-20T14:33:34.035Z,98676.55
2018-11-20T14:36:25.034Z,98687.88
2018-11-20T14:39:14.750Z,98686.82
2018-11-20T14:42:03.766Z,98689.64
2018-11-20T14:44:51.302Z,98695.23
2018-11-20T14:47:42.229Z,98681.41
2018-11-20T14:50:29.061Z,98665.23
2018-11-20T14:53:20.106Z,98659.91
2018-11-20T14:56:17.542Z,98674.20
2018-11-20T14:59:08.884Z,98667.09
2018-11-20T15:01:56.583Z,98662.34
2018-11-20T15:04:51.375Z,98663.55
2018-11-20T15:07:45.349Z,98687.12
2018-11-20T15:10:32.656Z,98676.19
2018-11-20T15:13:18.385Z,98675.28
2018-11-20T15:16:33.168Z,98683.55
2018-11-20T15:19:26.958Z,98682.59
2018-11-20T15:22:16.697Z,98691.16
2018-11-20T15:25:10.037Z,98693.77
2018-11-20T15:27:59.144Z,98699.81
2018-11-20T15:30:46.760Z,98692.45
2018-11-20T15:33:41.054Z,98698.30
2018-11-20T15:36:30.179Z,98693.36
2018-11-20T15:39:12.345Z,98695.94
2018-11-20T15:42:06.935Z,98699.11
2018-11-20T15:44:54.332Z,98691.45
2018-11-20T15:48:03.957Z,98679.83
2018-11-20T15:50:54.385Z,98686.82
2018-11-20T15:53:52.047Z,98684.86
2018-11-20T15:56:50.213Z,98711.48
2018-11-20T15:59:38.241Z,98691.14
2018-11-20T16:02:39.836Z,98699.55
2018-11-20T16:05:26.804Z,98709.27
2018-11-20T16:08:25.462Z,98702.88
2018-11-20T16:11:19.788Z,98680.35
2018-11-20T16:14:08.675Z,98696.18
2018-11-20T16:17:17.202Z,98698.25
2018-11-20T16:19:54.846Z,98699.51
2018-11-20T16:22:42.681Z,98696.94
2018-11-20T16:25:42.939Z,98695.89
2018-11-20T16:28:46.663Z,98704.94
2018-11-20T16:31:34.003Z,98716.28
2018-11-20T16:34:20.896Z,98704.19
2018-11-20T16:37:08.002Z,98704.23
2018-11-20T16:40:15.004Z,98704.66
2018-11-20T16:43:02.041Z,98708.11
2018-11-20T16:45:49.137Z,98722.07
2018-11-20T16:48:36.277Z,98720.30
2018-11-20T16:51:24.757Z,98711.84
2018-11-20T16:54:13.109Z,98729.66
2018-11-20T16:57:03.237Z,98729.46
2018-11-20T16:59:51.552Z,98729.61
2018-11-20T17:02:52.166Z,98731.02
2018-11-20T17:05:55.612Z,98732.84
2018-11-20T17:08:52.814Z,98720.01
2018-11-20T17:11:47.155Z,98726.34
2018-11-20T17:14:47.623Z,98731.08
2018-11-20T17:17:48.118Z,98732.93
2018-11-20T17:20:35.754Z,98737.32
2018-11-20T17:23:18.484Z,98732.08
2018-11-20T17:26:05.979Z,98729.16
2018-11-20T17:29:07.275Z,98734.86
2018-11-20T17:31:54.187Z,98732.64
2018-11-20T17:34:48.186Z,98735.81
2018-11-20T17:37:36.338Z,98744.71
2018-11-20T17:40:25.291Z,98747.13
2018-11-20T17:43:13.551Z,98747.69
2018-11-20T17:46:12.107Z,98747.95
2018-11-20T17:48:59.466Z,98752.63
2018-11-20T17:51:50.460Z,98758.63
2018-11-20T17:54:54.446Z,98757.11
2018-11-20T17:57:36.003Z,98756.45
2018-11-20T18:00:29.456Z,98761.63
2018-11-20T18:03:21.032Z,98754.50
2018-11-20T18:06:10.151Z,98759.42
2018-11-20T18:08:58.565Z,98757.66
2018-11-20T18:11:47.427Z,98762.64
2018-11-20T18:14:34.453Z,98757.11
2018-11-20T18:17:20.745Z,98752.13
2018-11-20T18:20:09.585Z,98756.51
2018-11-20T18:23:03.799Z,98745.27
2018-11-20T18:26:04.553Z,98747.84
2018-11-20T18:28:53.400Z,98749.91
2018-11-20T18:31:50.945Z,98750.92
2018-11-20T18:34:43.832Z,98740.39
2018-11-20T18:37:16.127Z,98743.26
2018-11-20T18:40:12.974Z,98737.33
2018-11-20T18:43:14.330Z,98732.04
2018-11-20T18:46:09.629Z,98737.08
2018-11-20T18:49:02.217Z,98741.95
2018-11-20T18:52:02.649Z,98741.34
2018-11-20T18:54:43.582Z,98741.34
2018-11-20T18:57:35.079Z,98743.81
2018-11-20T19:00:45.399Z,98751.36
2018-11-20T19:03:42.800Z,98764.09
2018-11-20T19:06:34.272Z,98772.05
2018-11-20T19:09:25.386Z,98777.05
2018-11-20T19:12:07.987Z,98776.77
2018-11-20T19:14:59.292Z,98768.17
2018-11-20T19:17:49.040Z,98773.00
2018-11-20T19:20:36.313Z,98770.41
2018-11-20T19:23:33.271Z,98767.98
2018-11-20T19:26:33.431Z,98771.95
2018-11-20T19:29:27.223Z,98766.77
2018-11-20T19:32:17.011Z,98788.17
2018-11-20T19:35:08.522Z,98788.27
2018-11-20T19:38:09.501Z,98791.89
2018-11-20T19:40:58.158Z,98792.39
2018-11-20T19:43:49.495Z,98800.51
2018-11-20T19:46:47.294Z,98801.00
2018-11-20T19:49:34.002Z,98806.89
2018-11-20T19:52:20.907Z,98809.45
2018-11-20T19:55:18.571Z,98809.45
2018-11-20T19:58:19.457Z,98818.57
2018-11-20T20:01:07.393Z,98807.25
2018-11-20T20:03:46.706Z,98812.30
2018-11-20T20:06:38.249Z,98813.40
2018-11-20T20:09:47.551Z,98814.30
2018-11-20T20:12:37.617Z,98817.67
2018-11-20T20:15:45.075Z,98811.08
2018-11-20T20:18:34.802Z,98813.84
2018-11-20T20:21:23.680Z,98810.67
2018-11-20T20:24:20.760Z,98815.75
2018-11-20T20:27:24.261Z,98812.78
2018-11-20T20:30:15.421Z,98819.33
2018-11-20T20:32:52.325Z,98812.52
2018-11-20T20:35:39.583Z,98814.52
2018-11-20T20:38:37.235Z,98819.75
2018-11-20T20:41:31.341Z,98822.93
2018-11-20T20:44:18.182Z,98827.30
2018-11-20T20:47:18.303Z,98834.65
2018-11-20T20:49:57.623Z,98833.84
2018-11-20T20:52:48.881Z,98838.52
2018-11-20T20:55:40.664Z,98842.70
2018-11-20T20:58:31.490Z,98834.59
2018-11-20T21:01:18.621Z,98841.56
2018-11-20T21:04:05.304Z,98847.71
2018-11-20T21:06:58.987Z,98851.52
2018-11-20T21:09:50.593Z,98855.27
2018-11-20T21:12:37.690Z,98851.91
2018-11-20T21:15:25.518Z,98847.52
2018-11-20T21:18:12.413Z,98852.81
2018-11-20T21:20:59.614Z,98849.28
2018-11-20T21:23:44.439Z,98850.70
2018-11-20T21:26:42.074Z,98862.16
2018-11-20T21:29:25.443Z,98849.58
2018-11-20T21:32:12.451Z,98857.11
2018-11-20T21:35:15.749Z,98854.33
2018-11-20T21:38:02.678Z,98858.80
2018-11-20T21:40:53.530Z,98861.28
2018-11-20T21:43:41.846Z,98869.31
2018-11-20T21:46:33.528Z,98872.63
2018-11-20T21:49:34.126Z,98867.16
2018-11-20T21:52:25.006Z,98872.95
2018-11-20T21:55:03.341Z,98870.33
2018-11-20T21:57:57.921Z,98880.00
2018-11-20T22:00:55.884Z,98880.80
2018-11-20T22:03:59.365Z,98880.42
2018-11-20T22:06:46.434Z,98878.31
2018-11-20T22:09:23.681Z,98876.77
2018-11-20T22:12:18.350Z,98875.00
2018-11-20T22:15:12.725Z,98883.92
2018-11-20T22:18:10.199Z,98884.97
2018-11-20T22:21:16.709Z,98883.36
2018-11-20T22:24:07.705Z,98894.28
2018-11-20T22:27:02.647Z,98893.32
2018-11-20T22:30:09.245Z,98903.28
2018-11-20T22:33:12.644Z,98898.89
2018-11-20T22:36:06.970Z,98900.88
2018-11-20T22:39:03.850Z,98902.87
2018-11-20T22:42:01.211Z,98905.73
2018-11-20T22:44:53.146Z,98904.87
2018-11-20T22:47:56.355Z,98905.48
2018-11-20T22:50:40.998Z,98909.95
2018-11-20T22:53:47.822Z,98905.84
2018-11-20T22:56:24.500Z,98901.92
2018-11-20T22:59:20.091Z,98915.52
2018-11-20T23:02:17.390Z,98908.34
2018-11-20T23:05:10.667Z,98907.59
2018-11-20T23:07:45.103Z,98912.66
2018-11-20T23:10:16.972Z,98910.89
2018-11-20T23:12:46.617Z,98918.06
2018-11-20T23:15:16.603Z,98914.26
2018-11-20T23:17:45.839Z,98909.53
2018-11-20T23:20:15.395Z,98919.20
2018-11-20T23:22:44.742Z,98914.20
2018-11-20T23:25:16.951Z,98920.23
2018-11-20T23:27:46.534Z,98915.00
2018-11-20T23:30:16.352Z,98912.03
2018-11-20T23:32:45.971Z,98907.09
2018-11-20T23:35:15.280Z,98909.33
2018-11-20T23:37:44.572Z,98904.09
2018-11-20T23:40:14.846Z,98911.83
2018-11-20T23:42:44.232Z,98902.73
2018-11-20T23:45:14.568Z,98913.70
2018-11-20T23:47:44.055Z,98918.55
2018-11-20T23:50:14.502Z,98913.59
2018-11-20T23:52:43.749Z,98912.78
2018-11-20T23:55:14.116Z,98918.43
2018-11-20T23:57:45.820Z,98913.26
